AirNav   TITAN Aviation Fuels
 
 1584 users online  

63CL G3 Ranch Airport
Capay, California, USA

GOING TO CAPAY?


FAA INFORMATION EFFECTIVE 04 NOVEMBER 2021

Location

FAA Identifier: 63CL
Lat/Long: 38-42-59.6520N 122-08-18.9040W
38-42.994200N 122-08.315067W
38.7165700,-122.1385844
(estimated)
Elevation: 360 ft. / 110 m (estimated)
Variation: 16E (1985)
From city: 4 miles W of CAPAY, CA
Time zone: UTC -7 (UTC -8 during Standard Time)
Zip code: 95607

Airport Operations

Airport use: Private use. Permission required prior to landing
Activation date: 08/1970
Control tower: no
ARTCC: OAKLAND CENTER
FSS: RANCHO MURIETA FLIGHT SERVICE STATION
Attendance: UNATNDD
Wind indicator: no
Segmented circle: no

Airport Communications

WX AWOS-3P at DWA (16 nm SE): 125.775 (530-750-2759)
WX AWOS-3 at EDU (20 nm SE): 119.025 (530-754-6839)

Nearby radio navigation aids

VOR radial/distance  VOR name  Freq  Var
ILAr176/21.9WILLIAMS VORTAC114.4018E
SACr284/32.0SACRAMENTO VORTAC115.2017E
SGDr002/34.1SCAGGS ISLAND VORTAC112.1017E
MCCr258/34.5MC CLELLAN VOR/DME109.2017E
MYVr213/35.0MARYSVILLE VOR/DME110.8016E

Airport Services

Airframe service: NONE
Powerplant service: NONE

Runway Information

Runway NW/SE

Dimensions: 2800 x 110 ft. / 853 x 34 m
Surface: turf
RUNWAY NW  RUNWAY SE
Traffic pattern: leftleft
Obstructions: plinepline, 60 ft. from runway

Airport Ownership and Management from official FAA records

Ownership: Privately-owned
Owner: C. M. GORDON
P. O. BOX 125
BROOKS, CA 95606
Phone (530) 796-3188
Manager: BOB GORDON
P. O. BOX 113
BROOKS, CA 95606
Phone (530) 908-9241

Additional Remarks

FOR CD CTC OAKLAND ARTCC AT 510-745-3380.

Instrument Procedures

There are no published instrument procedures at 63CL.

Some nearby airports with instrument procedures:

O41 - Watts-Woodland Airport (13 nm E)
KDWA - Yolo County Airport (16 nm SE)
KEDU - University Airport (20 nm SE)
KVCB - Nut Tree Airport (22 nm S)
KSMF - Sacramento International Airport (26 nm E)
 
Loc | Ops | Rwys | IFR | FBO | Links
Com | Nav | Svcs | Stats | Notes

Sonoma Jet Center
 
Area around 63CL (G3 Ranch Airport)
 
Road maps at: MapQuest Bing Google
 
Aerial photo
No photo
 
Sectional chart

 
Airport distance calculator
Flying to G3 Ranch Airport? Find the distance to fly.

From to 63CL

Sunrise and sunset
Times for 29-Nov-2021
 Local
(UTC-8)
 Zulu
(UTC)
Morning civil twilight06:3814:38
Sunrise07:0715:07
Sunset16:4700:47
Evening civil twilight17:1601:16

Current date and time
Zulu (UTC)  29-Nov-2021 23:37:41
Local (UTC-8)  29-Nov-2021 15:37:41
 
METAR
KDWA 
16nm SE 
292315Z AUTO 01003KT 10SM CLR 21/11 A3012 RMK AO2
KEDU 
20nm SE 
292315Z AUTO 01005KT 10SM CLR 20/11 A3012 RMK AO1
KVCB 
22nm SE 
292253Z AUTO 35004KT 10SM CLR 21/13 A3012 RMK AO2 SLP199 T02110128
KSMF 
25nm E 
292253Z 35005KT 10SM CLR 20/12 A3011 RMK AO2 SLP195 T02000122
KSUU 
29nm S 
292258Z AUTO 02005KT 10SM CLR 22/13 A3011 RMK AO2 SLP203 T02210126 $
TAF
KSMF 
25nm E 
291720Z 2918/3018 33004KT P6SM FEW250 FM300700 VRB03KT 4SM BR FEW250 FM301300 34002KT 2SM BR BCFG FEW250
KSUU 
29nm S 
291900Z 2919/0101 VRB06KT 9999 SKC QNH3015INS BECMG 3002/3003 33010G15KT 9999 SKC QNH3013INS BECMG 3010/3011 VRB06KT 4800 BR SKC QNH3010INS TX21/2922Z TN05/3014Z
NOTAMs
Click for the latest NOTAMs
NOTAMs are issued by the DoD/FAA and will open in a separate window not controlled by AirNav.

 

 
 

Would you like to see your business listed on this page?

 If your business provides an interesting product or service to pilots, flight crews, aircraft, or users of the G3 Ranch Airport, you should consider listing it here.  To start the listing process, click on the button below
 
Add a business
 

Other Pages about G3 Ranch Airport

Update a link
 
Copyright © AirNav, LLC. All rights reserved. Privacy Policy  Contact